CYVR/YVR METAR and TAF weather

Enter ICAO airport designator
Station Type Date Time Source
CYVR METAR 2019/10/20 19:08 UTC NOAA

CYVR 201908Z 07011KT 3SM RA BR FEW007 BKN013 OVC033 09/08 A2992 RMK SF1SC7SC1 SF TR SLP134


Station Type Date Time Source
CYVR Decoded METAR 2019/10/20 19:08 UTC NOAA

Vancouver International Air-Port, B. C., Canada (CYVR) 49-11N 123-10W 2M
Oct 20, 2019 - 03:08 PM EDT / 2019.10.20 1908 UTC
Wind: from the ENE (070 degrees) at 13 MPH (11 KT):0
Visibility: 3 mile(s):0
Sky conditions: overcast
Weather: rain; mist
Temperature: 48 F (9 C)
Dew Point: 46 F (8 C)
Relative Humidity: 93%
Pressure (altimeter): 29.92 in. Hg (1013 hPa)
ob: CYVR 201908Z 07011KT 3SM RA BR FEW007 BKN013 OVC033 09/08 A2992 RMK SF1SC7SC1 SF TR SLP134
cycle: 19

Station Type Date Time Source
CYVR TAF 2019/10/20 18:43 UTC NOAA

TAF
AMD CYVR 201833Z 2018/2124 11010KT P6SM -RA SCT015 OVC030
TEMPO 2018/2024 2SM +SHRA BR FEW007 BKN015 OVC030
BECMG 2018/2020 13012G22KT
FM210000 18012G22KT P6SM SCT040 BKN240
TEMPO 2100/2109 FEW015 BKN040
BECMG 2101/2103 27010KT
FM210900 09008KT P6SM -SHRA BKN030 OVC080
FM211600 14012KT 5SM -RA BR SCT008 OVC015
RMK NXT FCST BY 202100Z

Example: see airport list